sensor_id;sensor_type;location;lat;lon;timestamp;pressure;altitude;pressure_sealevel;temperature;humidity
10712;BME280;5407;51.234;6.804;2023-01-25T00:02:08;103151.28;;;23.22;33.70
10712;BME280;5407;51.234;6.804;2023-01-25T00:04:34;103153.63;;;23.20;33.85
10712;BME280;5407;51.234;6.804;2023-01-25T00:07:01;103146.50;;;23.19;33.85
10712;BME280;5407;51.234;6.804;2023-01-25T00:09:28;103144.50;;;23.16;33.83
10712;BME280;5407;51.234;6.804;2023-01-25T00:11:55;103140.16;;;23.15;33.86
10712;BME280;5407;51.234;6.804;2023-01-25T00:14:24;103141.75;;;23.16;33.72
10712;BME280;5407;51.234;6.804;2023-01-25T00:16:51;103133.47;;;23.16;33.78
10712;BME280;5407;51.234;6.804;2023-01-25T00:19:18;103136.25;;;23.16;33.61
10712;BME280;5407;51.234;6.804;2023-01-25T00:21:45;103128.31;;;23.14;33.66
10712;BME280;5407;51.234;6.804;2023-01-25T00:24:12;103131.09;;;23.14;33.58
10712;BME280;5407;51.234;6.804;2023-01-25T00:26:40;103131.09;;;23.14;33.68
10712;BME280;5407;51.234;6.804;2023-01-25T00:29:10;103125.22;;;23.16;33.61
10712;BME280;5407;51.234;6.804;2023-01-25T00:32:01;103132.31;;;23.17;33.61
10712;BME280;5407;51.234;6.804;2023-01-25T00:34:50;103123.25;;;23.16;33.80
10712;BME280;5407;51.234;6.804;2023-01-25T00:37:22;103119.72;;;23.16;33.83
10712;BME280;5407;51.234;6.804;2023-01-25T00:39:49;103119.72;;;23.16;33.72
10712;BME280;5407;51.234;6.804;2023-01-25T00:42:17;103113.78;;;23.14;33.82
10712;BME280;5407;51.234;6.804;2023-01-25T00:44:45;103116.53;;;23.14;33.83
10712;BME280;5407;51.234;6.804;2023-01-25T00:47:14;103114.94;;;23.13;33.79
10712;BME280;5407;51.234;6.804;2023-01-25T00:49:42;103103.94;;;23.13;33.79
10712;BME280;5407;51.234;6.804;2023-01-25T00:52:10;103101.94;;;23.13;33.64
10712;BME280;5407;51.234;6.804;2023-01-25T00:54:37;103101.16;;;23.13;33.59
10712;BME280;5407;51.234;6.804;2023-01-25T00:57:04;103101.16;;;23.13;33.73
10712;BME280;5407;51.234;6.804;2023-01-25T00:59:33;103100.00;;;23.14;33.71
10712;BME280;5407;51.234;6.804;2023-01-25T01:02:00;103095.28;;;23.14;33.74
10712;BME280;5407;51.234;6.804;2023-01-25T01:04:29;103100.00;;;23.14;33.71
10712;BME280;5407;51.234;6.804;2023-01-25T01:07:18;103097.59;;;23.12;33.70
10712;BME280;5407;51.234;6.804;2023-01-25T01:09:44;103100.00;;;23.14;33.63
10712;BME280;5407;51.234;6.804;2023-01-25T01:12:11;103094.50;;;23.14;33.63
10712;BME280;5407;51.234;6.804;2023-01-25T01:14:38;103090.56;;;23.15;33.74
10712;BME280;5407;51.234;6.804;2023-01-25T01:17:05;103094.50;;;23.14;33.78
10712;BME280;5407;51.234;6.804;2023-01-25T01:19:33;103093.69;;;23.13;33.74
10712;BME280;5407;51.234;6.804;2023-01-25T01:22:00;103100.00;;;23.14;33.60
10712;BME280;5407;51.234;6.804;2023-01-25T01:24:28;103099.19;;;23.13;33.59
10712;BME280;5407;51.234;6.804;2023-01-25T01:26:54;103099.19;;;23.13;33.64
10712;BME280;5407;51.234;6.804;2023-01-25T01:29:22;103100.00;;;23.14;33.68
10712;BME280;5407;51.234;6.804;2023-01-25T01:31:49;103095.66;;;23.13;33.57
10712;BME280;5407;51.234;6.804;2023-01-25T01:34:21;103095.66;;;23.13;33.63
10712;BME280;5407;51.234;6.804;2023-01-25T01:36:49;103103.94;;;23.13;33.60
10712;BME280;5407;51.234;6.804;2023-01-25T01:39:16;103103.94;;;23.13;33.67
10712;BME280;5407;51.234;6.804;2023-01-25T01:41:43;103099.19;;;23.13;33.64
10712;BME280;5407;51.234;6.804;2023-01-25T01:44:15;103103.94;;;23.13;33.54
10712;BME280;5407;51.234;6.804;2023-01-25T01:46:48;103103.94;;;23.13;33.56
10712;BME280;5407;51.234;6.804;2023-01-25T01:49:21;103089.00;;;23.14;33.59
10712;BME280;5407;51.234;6.804;2023-01-25T01:51:57;103087.41;;;23.13;33.60
10712;BME280;5407;51.234;6.804;2023-01-25T01:54:33;103090.94;;;23.13;33.56
10712;BME280;5407;51.234;6.804;2023-01-25T01:57:06;103090.94;;;23.13;33.51
10712;BME280;5407;51.234;6.804;2023-01-25T01:59:39;103089.00;;;23.14;33.42
10712;BME280;5407;51.234;6.804;2023-01-25T02:02:07;103089.00;;;23.14;33.48
10712;BME280;5407;51.234;6.804;2023-01-25T02:04:35;103087.41;;;23.13;33.48
10712;BME280;5407;51.234;6.804;2023-01-25T02:07:14;103080.72;;;23.14;33.44
10712;BME280;5407;51.234;6.804;2023-01-25T02:09:46;103082.31;;;23.15;33.39
10712;BME280;5407;51.234;6.804;2023-01-25T02:12:16;103085.84;;;23.15;33.48
10712;BME280;5407;51.234;6.804;2023-01-25T02:14:47;103083.47;;;23.14;33.37
10712;BME280;5407;51.234;6.804;2023-01-25T02:17:18;103079.56;;;23.15;33.48
10712;BME280;5407;51.234;6.804;2023-01-25T02:19:53;103083.47;;;23.14;33.35
10712;BME280;5407;51.234;6.804;2023-01-25T02:22:32;103079.56;;;23.15;33.47
10712;BME280;5407;51.234;6.804;2023-01-25T02:25:07;103075.22;;;23.14;33.21
10712;BME280;5407;51.234;6.804;2023-01-25T02:27:38;103083.47;;;23.14;33.48
10712;BME280;5407;51.234;6.804;2023-01-25T02:30:08;103077.97;;;23.14;33.37
10712;BME280;5407;51.234;6.804;2023-01-25T02:32:35;103071.66;;;23.13;33.39
10712;BME280;5407;51.234;6.804;2023-01-25T02:35:03;103065.38;;;23.13;33.38
10712;BME280;5407;51.234;6.804;2023-01-25T02:37:30;103070.06;;;23.12;33.48
10712;BME280;5407;51.234;6.804;2023-01-25T02:39:57;103070.06;;;23.12;33.46
10712;BME280;5407;51.234;6.804;2023-01-25T02:42:30;103070.88;;;23.13;33.42
10712;BME280;5407;51.234;6.804;2023-01-25T02:45:02;103069.28;;;23.12;33.41
10712;BME280;5407;51.234;6.804;2023-01-25T02:47:31;103074.78;;;23.12;33.55
10712;BME280;5407;51.234;6.804;2023-01-25T02:49:58;103064.94;;;23.11;33.38
10712;BME280;5407;51.234;6.804;2023-01-25T02:52:25;103067.69;;;23.11;33.47
10712;BME280;5407;51.234;6.804;2023-01-25T02:54:52;103063.34;;;23.10;33.41
10712;BME280;5407;51.234;6.804;2023-01-25T02:57:19;103064.13;;;23.10;33.53
10712;BME280;5407;51.234;6.804;2023-01-25T02:59:47;103066.09;;;23.10;33.35
10712;BME280;5407;51.234;6.804;2023-01-25T03:02:15;103066.88;;;23.10;33.46
10712;BME280;5407;51.234;6.804;2023-01-25T03:04:42;103067.25;;;23.09;33.32
10712;BME280;5407;51.234;6.804;2023-01-25T03:07:09;103060.16;;;23.08;33.36
10712;BME280;5407;51.234;6.804;2023-01-25T03:09:39;103066.44;;;23.08;33.32
10712;BME280;5407;51.234;6.804;2023-01-25T03:12:07;103062.09;;;23.07;33.43
10712;BME280;5407;51.234;6.804;2023-01-25T03:14:34;103064.84;;;23.07;33.34
10712;BME280;5407;51.234;6.804;2023-01-25T03:17:03;103067.59;;;23.07;33.27
10712;BME280;5407;51.234;6.804;2023-01-25T03:19:30;103064.06;;;23.07;33.32
10712;BME280;5407;51.234;6.804;2023-01-25T03:21:57;103065.22;;;23.06;33.37
10712;BME280;5407;51.234;6.804;2023-01-25T03:24:25;103058.91;;;23.05;33.24
10712;BME280;5407;51.234;6.804;2023-01-25T03:26:52;103059.72;;;23.06;33.31
10712;BME280;5407;51.234;6.804;2023-01-25T03:30:01;103057.31;;;23.04;33.40
10712;BME280;5407;51.234;6.804;2023-01-25T03:32:33;103062.03;;;23.04;33.41
10712;BME280;5407;51.234;6.804;2023-01-25T03:35:05;103060.47;;;23.03;33.41
10712;BME280;5407;51.234;6.804;2023-01-25T03:37:32;103053.34;;;23.02;33.42
10712;BME280;5407;51.234;6.804;2023-01-25T03:39:59;103052.56;;;23.01;33.40
10712;BME280;5407;51.234;6.804;2023-01-25T03:42:26;103050.59;;;23.02;33.31
10712;BME280;5407;51.234;6.804;2023-01-25T03:44:56;103049.06;;;23.04;33.35
10712;BME280;5407;51.234;6.804;2023-01-25T03:47:22;103045.53;;;23.04;33.46
10712;BME280;5407;51.234;6.804;2023-01-25T03:49:51;103045.09;;;23.02;33.38
10712;BME280;5407;51.234;6.804;2023-01-25T03:52:18;103042.78;;;23.04;33.40
10712;BME280;5407;51.234;6.804;2023-01-25T03:54:46;103037.63;;;23.02;33.49
10712;BME280;5407;51.234;6.804;2023-01-25T03:57:13;103038.00;;;23.01;33.42
10712;BME280;5407;51.234;6.804;2023-01-25T03:59:54;103028.56;;;23.02;33.45
10712;BME280;5407;51.234;6.804;2023-01-25T04:02:21;103027.00;;;23.01;33.33
10712;BME280;5407;51.234;6.804;2023-01-25T04:04:48;103025.00;;;23.01;33.29
10712;BME280;5407;51.234;6.804;2023-01-25T04:07:19;103018.72;;;23.01;33.36
10712;BME280;5407;51.234;6.804;2023-01-25T04:09:46;103021.47;;;23.01;33.39
10712;BME280;5407;51.234;6.804;2023-01-25T04:12:17;103020.69;;;23.00;33.38
10712;BME280;5407;51.234;6.804;2023-01-25T04:14:45;103019.91;;;23.00;33.41
10712;BME280;5407;51.234;6.804;2023-01-25T04:17:18;103011.63;;;23.00;33.33
10712;BME280;5407;51.234;6.804;2023-01-25T04:19:59;103007.72;;;23.01;33.25
10712;BME280;5407;51.234;6.804;2023-01-25T04:22:34;102996.69;;;23.01;33.32
10712;BME280;5407;51.234;6.804;2023-01-25T04:25:03;102991.97;;;23.01;33.27
10712;BME280;5407;51.234;6.804;2023-01-25T04:28:02;102992.78;;;23.02;33.31
10712;BME280;5407;51.234;6.804;2023-01-25T04:30:30;102991.63;;;23.03;33.29
10712;BME280;5407;51.234;6.804;2023-01-25T04:33:02;102981.78;;;23.02;33.37
10712;BME280;5407;51.234;6.804;2023-01-25T04:35:30;102984.09;;;23.00;33.26
10712;BME280;5407;51.234;6.804;2023-01-25T04:37:59;102985.25;;;22.99;33.44
10712;BME280;5407;51.234;6.804;2023-01-25T04:40:34;102985.69;;;23.01;33.38
10712;BME280;5407;51.234;6.804;2023-01-25T04:43:01;102986.84;;;23.00;33.42
10712;BME280;5407;51.234;6.804;2023-01-25T04:45:29;102981.78;;;23.02;33.43
10712;BME280;5407;51.234;6.804;2023-01-25T04:47:57;102988.06;;;23.02;33.38
10712;BME280;5407;51.234;6.804;2023-01-25T04:50:26;102983.34;;;23.03;33.26
10712;BME280;5407;51.234;6.804;2023-01-25T04:52:53;102975.09;;;23.03;33.28
10712;BME280;5407;51.234;6.804;2023-01-25T04:55:23;102976.69;;;23.04;33.46
10712;BME280;5407;51.234;6.804;2023-01-25T04:57:51;102974.72;;;23.04;33.53
10712;BME280;5407;51.234;6.804;2023-01-25T05:00:18;102975.53;;;23.05;33.52
10712;BME280;5407;51.234;6.804;2023-01-25T05:02:47;102967.25;;;23.05;33.53
10712;BME280;5407;51.234;6.804;2023-01-25T05:05:14;102970.78;;;23.05;33.63
10712;BME280;5407;51.234;6.804;2023-01-25T05:07:44;102965.28;;;23.05;33.59
10712;BME280;5407;51.234;6.804;2023-01-25T05:10:12;102964.50;;;23.05;33.66
10712;BME280;5407;51.234;6.804;2023-01-25T05:12:51;102957.84;;;23.06;33.48
10712;BME280;5407;51.234;6.804;2023-01-25T05:15:19;102957.44;;;23.07;33.50
10712;BME280;5407;51.234;6.804;2023-01-25T05:17:46;102955.84;;;23.06;33.42
10712;BME280;5407;51.234;6.804;2023-01-25T05:20:13;102956.66;;;23.07;33.47
10712;BME280;5407;51.234;6.804;2023-01-25T05:22:40;102959.03;;;23.08;33.39
10712;BME280;5407;51.234;6.804;2023-01-25T05:25:07;102962.94;;;23.07;33.53
10712;BME280;5407;51.234;6.804;2023-01-25T05:27:56;102959.41;;;23.07;33.54
10712;BME280;5407;51.234;6.804;2023-01-25T05:30:42;102958.25;;;23.08;33.48
10712;BME280;5407;51.234;6.804;2023-01-25T05:33:20;102949.59;;;23.09;33.45
10712;BME280;5407;51.234;6.804;2023-01-25T05:35:46;102956.66;;;23.07;33.59
10712;BME280;5407;51.234;6.804;2023-01-25T05:38:13;102945.66;;;23.07;33.51
10712;BME280;5407;51.234;6.804;2023-01-25T05:40:41;102947.59;;;23.06;33.49
10712;BME280;5407;51.234;6.804;2023-01-25T05:43:10;102956.25;;;23.05;33.66
10712;BME280;5407;51.234;6.804;2023-01-25T05:45:37;102957.41;;;23.04;33.61
10712;BME280;5407;51.234;6.804;2023-01-25T05:48:06;102955.81;;;23.03;33.64
10712;BME280;5407;51.234;6.804;2023-01-25T05:50:34;102951.84;;;23.00;33.68
10712;BME280;5407;51.234;6.804;2023-01-25T05:53:07;102951.09;;;23.03;33.58
10712;BME280;5407;51.234;6.804;2023-01-25T05:55:34;102956.66;;;23.07;33.53
10712;BME280;5407;51.234;6.804;2023-01-25T05:58:07;102950.06;;;23.11;33.49
10712;BME280;5407;51.234;6.804;2023-01-25T06:00:36;102946.13;;;23.12;33.43
10712;BME280;5407;51.234;6.804;2023-01-25T06:03:02;102953.63;;;23.12;33.49
10712;BME280;5407;51.234;6.804;2023-01-25T06:05:32;102948.13;;;23.12;33.39
10712;BME280;5407;51.234;6.804;2023-01-25T06:07:59;102941.03;;;23.11;33.55
10712;BME280;5407;51.234;6.804;2023-01-25T06:10:35;102940.16;;;23.07;33.85
10712;BME280;5407;51.234;6.804;2023-01-25T06:13:02;102939.34;;;23.06;33.89
10712;BME280;5407;51.234;6.804;2023-01-25T06:15:29;102939.34;;;23.06;33.93
10712;BME280;5407;51.234;6.804;2023-01-25T06:18:17;102935.06;;;23.09;33.86
10712;BME280;5407;51.234;6.804;2023-01-25T06:20:58;102936.28;;;23.11;33.76
10712;BME280;5407;51.234;6.804;2023-01-25T06:23:34;102937.09;;;23.12;33.71
10712;BME280;5407;51.234;6.804;2023-01-25T06:26:03;102941.03;;;23.11;33.92
10712;BME280;5407;51.234;6.804;2023-01-25T06:28:30;102939.44;;;23.10;33.91
10712;BME280;5407;51.234;6.804;2023-01-25T06:31:03;102942.19;;;23.10;33.89
10712;BME280;5407;51.234;6.804;2023-01-25T06:33:32;102943.03;;;23.14;33.94
10712;BME280;5407;51.234;6.804;2023-01-25T06:36:00;102944.09;;;23.09;33.94
10712;BME280;5407;51.234;6.804;2023-01-25T06:38:27;102935.84;;;23.09;34.02
10712;BME280;5407;51.234;6.804;2023-01-25T06:40:57;102942.91;;;23.07;34.07
10712;BME280;5407;51.234;6.804;2023-01-25T06:43:24;102939.44;;;23.10;34.11
10712;BME280;5407;51.234;6.804;2023-01-25T06:45:51;102941.03;;;23.11;33.96
10712;BME280;5407;51.234;6.804;2023-01-25T06:48:18;102939.84;;;23.12;33.91
10712;BME280;5407;51.234;6.804;2023-01-25T06:50:52;102937.53;;;23.14;33.98
10712;BME280;5407;51.234;6.804;2023-01-25T06:53:19;102947.78;;;23.17;33.81
10712;BME280;5407;51.234;6.804;2023-01-25T06:55:46;102937.94;;;23.16;33.84
10712;BME280;5407;51.234;6.804;2023-01-25T06:58:13;102935.59;;;23.18;33.69
10712;BME280;5407;51.234;6.804;2023-01-25T07:00:39;102944.66;;;23.18;33.83
10712;BME280;5407;51.234;6.804;2023-01-25T07:03:06;102940.72;;;23.19;33.77
10712;BME280;5407;51.234;6.804;2023-01-25T07:05:33;102934.03;;;23.17;33.80
10712;BME280;5407;51.234;6.804;2023-01-25T07:08:01;102937.97;;;23.19;33.67
10712;BME280;5407;51.234;6.804;2023-01-25T07:10:28;102937.63;;;23.21;33.61
10712;BME280;5407;51.234;6.804;2023-01-25T07:12:55;102936.03;;;23.20;33.50
10712;BME280;5407;51.234;6.804;2023-01-25T07:15:22;102944.72;;;23.22;33.61
10712;BME280;5407;51.234;6.804;2023-01-25T07:17:49;102949.44;;;23.21;33.60
10712;BME280;5407;51.234;6.804;2023-01-25T07:20:16;102937.25;;;23.22;33.45
10712;BME280;5407;51.234;6.804;2023-01-25T07:22:42;102938.78;;;23.20;33.82
10712;BME280;5407;51.234;6.804;2023-01-25T07:25:11;102936.44;;;23.22;33.55
10712;BME280;5407;51.234;6.804;2023-01-25T07:27:37;102938.03;;;23.23;33.49
10712;BME280;5407;51.234;6.804;2023-01-25T07:30:05;102932.53;;;23.23;33.58
10712;BME280;5407;51.234;6.804;2023-01-25T07:32:32;102936.88;;;23.24;33.52
10712;BME280;5407;51.234;6.804;2023-01-25T07:34:59;102945.88;;;23.21;33.71
10712;BME280;5407;51.234;6.804;2023-01-25T07:37:26;102939.94;;;23.19;33.68
10712;BME280;5407;51.234;6.804;2023-01-25T07:39:53;102938.78;;;23.20;33.75
10712;BME280;5407;51.234;6.804;2023-01-25T07:42:24;102941.13;;;23.18;33.94
10712;BME280;5407;51.234;6.804;2023-01-25T07:45:06;102930.88;;;23.18;33.86
10712;BME280;5407;51.234;6.804;2023-01-25T07:47:33;102932.47;;;23.19;33.73
10712;BME280;5407;51.234;6.804;2023-01-25T07:50:00;102934.84;;;23.21;33.80
10712;BME280;5407;51.234;6.804;2023-01-25T07:52:27;102930.16;;;23.21;33.76
10712;BME280;5407;51.234;6.804;2023-01-25T07:54:53;102929.34;;;23.21;33.75
10712;BME280;5407;51.234;6.804;2023-01-25T07:57:20;102921.50;;;23.23;33.60
10712;BME280;5407;51.234;6.804;2023-01-25T07:59:48;102919.91;;;23.22;33.71
10712;BME280;5407;51.234;6.804;2023-01-25T08:02:15;102920.66;;;23.19;33.91
10712;BME280;5407;51.234;6.804;2023-01-25T08:04:42;102920.66;;;23.19;34.00
10712;BME280;5407;51.234;6.804;2023-01-25T08:07:10;102916.69;;;23.16;34.07
10712;BME280;5407;51.234;6.804;2023-01-25T08:09:37;102926.09;;;23.12;34.12
10712;BME280;5407;51.234;6.804;2023-01-25T08:12:05;102920.66;;;23.19;33.81
10712;BME280;5407;51.234;6.804;2023-01-25T08:14:32;102920.56;;;23.12;34.11
10712;BME280;5407;51.234;6.804;2023-01-25T08:17:01;102924.59;;;23.18;34.10
10712;BME280;5407;51.234;6.804;2023-01-25T08:19:27;102919.09;;;23.18;34.14
10712;BME280;5407;51.234;6.804;2023-01-25T08:21:54;102913.56;;;23.18;34.15
10712;BME280;5407;51.234;6.804;2023-01-25T08:24:21;102906.47;;;23.17;34.16
10712;BME280;5407;51.234;6.804;2023-01-25T08:26:48;102918.25;;;23.14;34.29
10712;BME280;5407;51.234;6.804;2023-01-25T08:29:15;102913.16;;;23.16;34.13
10712;BME280;5407;51.234;6.804;2023-01-25T08:31:42;102918.66;;;23.16;34.18
10712;BME280;5407;51.234;6.804;2023-01-25T08:34:11;102915.06;;;23.12;34.24
10712;BME280;5407;51.234;6.804;2023-01-25T08:36:39;102903.31;;;23.15;34.23
10712;BME280;5407;51.234;6.804;2023-01-25T08:39:07;102911.94;;;23.13;34.30
10712;BME280;5407;51.234;6.804;2023-01-25T08:41:35;102907.25;;;23.17;34.24
10712;BME280;5407;51.234;6.804;2023-01-25T08:44:03;102902.13;;;23.16;34.22
10712;BME280;5407;51.234;6.804;2023-01-25T08:46:31;102904.16;;;23.19;34.10
10712;BME280;5407;51.234;6.804;2023-01-25T08:49:00;102910.50;;;23.23;34.08
10712;BME280;5407;51.234;6.804;2023-01-25T08:51:29;102912.81;;;23.21;34.08
10712;BME280;5407;51.234;6.804;2023-01-25T08:54:00;102912.06;;;23.24;33.96
10712;BME280;5407;51.234;6.804;2023-01-25T08:56:27;102909.75;;;23.26;33.95
10712;BME280;5407;51.234;6.804;2023-01-25T08:58:54;102912.91;;;23.28;33.83
10712;BME280;5407;51.234;6.804;2023-01-25T09:03:49;102901.91;;;23.28;33.83
10712;BME280;5407;51.234;6.804;2023-01-25T09:06:17;102906.25;;;23.29;33.79
10712;BME280;5407;51.234;6.804;2023-01-25T09:08:46;102903.53;;;23.32;33.74
10712;BME280;5407;51.234;6.804;2023-01-25T09:11:14;102901.22;;;23.34;33.80
10712;BME280;5407;51.234;6.804;2023-01-25T09:13:42;102903.63;;;23.39;33.40
10712;BME280;5407;51.234;6.804;2023-01-25T09:16:11;102888.69;;;23.40;33.49
10712;BME280;5407;51.234;6.804;2023-01-25T09:18:39;102895.78;;;23.41;33.52
10712;BME280;5407;51.234;6.804;2023-01-25T09:21:07;102892.63;;;23.43;33.33
10712;BME280;5407;51.234;6.804;2023-01-25T09:23:35;102893.81;;;23.42;33.40
10712;BME280;5407;51.234;6.804;2023-01-25T09:26:04;102894.25;;;23.44;33.55
10712;BME280;5407;51.234;6.804;2023-01-25T09:28:32;102888.75;;;23.44;33.33
10712;BME280;5407;51.234;6.804;2023-01-25T09:31:00;102887.94;;;23.43;33.38
10712;BME280;5407;51.234;6.804;2023-01-25T09:33:49;102882.41;;;23.43;33.33
10712;BME280;5407;51.234;6.804;2023-01-25T09:36:16;102878.44;;;23.41;33.51
10712;BME280;5407;51.234;6.804;2023-01-25T09:38:43;102870.59;;;23.43;33.31
10712;BME280;5407;51.234;6.804;2023-01-25T09:41:25;102876.09;;;23.43;33.52
10712;BME280;5407;51.234;6.804;2023-01-25T09:44:11;102867.84;;;23.43;33.15
10712;BME280;5407;51.234;6.804;2023-01-25T09:46:43;102869.00;;;23.42;33.39
10712;BME280;5407;51.234;6.804;2023-01-25T09:49:35;102871.75;;;23.42;33.54
10712;BME280;5407;51.234;6.804;2023-01-25T09:52:19;102863.88;;;23.40;33.42
10712;BME280;5407;51.234;6.804;2023-01-25T09:54:48;102857.91;;;23.35;33.60
10712;BME280;5407;51.234;6.804;2023-01-25T09:57:18;102854.75;;;23.33;33.72
10712;BME280;5407;51.234;6.804;2023-01-25T09:59:49;102866.56;;;23.33;33.67
10712;BME280;5407;51.234;6.804;2023-01-25T10:02:33;102859.06;;;23.34;33.72
10712;BME280;5407;51.234;6.804;2023-01-25T10:05:07;102852.31;;;23.28;33.84
10712;BME280;5407;51.234;6.804;2023-01-25T10:07:51;102842.13;;;23.32;33.69
10712;BME280;5407;51.234;6.804;2023-01-25T10:10:23;102849.22;;;23.33;33.67
10712;BME280;5407;51.234;6.804;2023-01-25T10:12:53;102848.38;;;23.29;33.85
10712;BME280;5407;51.234;6.804;2023-01-25T10:15:22;102849.63;;;23.31;33.72
10712;BME280;5407;51.234;6.804;2023-01-25T10:17:55;102851.97;;;23.33;33.60
10712;BME280;5407;51.234;6.804;2023-01-25T10:20:28;102844.53;;;23.33;33.47
10712;BME280;5407;51.234;6.804;2023-01-25T10:25:57;102844.56;;;23.37;33.59
10712;BME280;5407;51.234;6.804;2023-01-25T10:28:39;102839.09;;;23.40;33.27
10712;BME280;5407;51.234;6.804;2023-01-25T10:31:16;102841.44;;;23.42;33.22
10712;BME280;5407;51.234;6.804;2023-01-25T10:33:46;102836.38;;;23.44;33.22
10712;BME280;5407;51.234;6.804;2023-01-25T10:36:14;102834.41;;;23.44;33.10
10712;BME280;5407;51.234;6.804;2023-01-25T10:38:43;102826.97;;;23.45;33.14
10712;BME280;5407;51.234;6.804;2023-01-25T10:41:14;102826.97;;;23.45;33.36
10712;BME280;5407;51.234;6.804;2023-01-25T10:43:45;102823.03;;;23.46;33.25
10712;BME280;5407;51.234;6.804;2023-01-25T10:46:18;102816.72;;;23.45;33.21
10712;BME280;5407;51.234;6.804;2023-01-25T10:48:45;102814.75;;;23.46;33.24
10712;BME280;5407;51.234;6.804;2023-01-25T10:51:28;102807.66;;;23.45;33.22
10712;BME280;5407;51.234;6.804;2023-01-25T10:53:58;102801.00;;;23.46;33.12
10712;BME280;5407;51.234;6.804;2023-01-25T10:56:27;102803.75;;;23.46;33.08
10712;BME280;5407;51.234;6.804;2023-01-25T10:59:12;102799.00;;;23.46;33.03
10712;BME280;5407;51.234;6.804;2023-01-25T11:01:40;102792.72;;;23.46;33.16
10712;BME280;5407;51.234;6.804;2023-01-25T11:04:23;102798.22;;;23.46;33.18
10712;BME280;5407;51.234;6.804;2023-01-25T11:06:50;102792.72;;;23.46;33.19
10712;BME280;5407;51.234;6.804;2023-01-25T11:09:39;102787.22;;;23.46;33.12
10712;BME280;5407;51.234;6.804;2023-01-25T11:12:17;102787.22;;;23.46;33.12
10712;BME280;5407;51.234;6.804;2023-01-25T11:14:46;102784.03;;;23.44;33.18
10712;BME280;5407;51.234;6.804;2023-01-25T11:17:27;102776.50;;;23.41;33.23
10712;BME280;5407;51.234;6.804;2023-01-25T11:20:15;102771.75;;;23.38;33.51
10712;BME280;5407;51.234;6.804;2023-01-25T11:22:53;102775.66;;;23.33;33.59
10712;BME280;5407;51.234;6.804;2023-01-25T11:25:30;102771.34;;;23.36;33.73
10712;BME280;5407;51.234;6.804;2023-01-25T11:28:10;102761.91;;;23.37;33.42
10712;BME280;5407;51.234;6.804;2023-01-25T11:30:39;102761.91;;;23.37;33.42
10712;BME280;5407;51.234;6.804;2023-01-25T11:33:09;102757.56;;;23.36;33.43
10712;BME280;5407;51.234;6.804;2023-01-25T11:35:42;102746.53;;;23.36;33.38
10712;BME280;5407;51.234;6.804;2023-01-25T11:38:18;102735.91;;;23.34;33.46
10712;BME280;5407;51.234;6.804;2023-01-25T11:40:49;102733.16;;;23.34;33.31
10712;BME280;5407;51.234;6.804;2023-01-25T11:43:33;102728.81;;;23.33;33.30
10712;BME280;5407;51.234;6.804;2023-01-25T11:46:18;102721.34;;;23.34;33.16
10712;BME280;5407;51.234;6.804;2023-01-25T11:49:15;102722.50;;;23.33;33.23
10712;BME280;5407;51.234;6.804;2023-01-25T11:51:49;102710.72;;;23.32;33.25
10712;BME280;5407;51.234;6.804;2023-01-25T11:54:31;102708.31;;;23.31;33.23
10712;BME280;5407;51.234;6.804;2023-01-25T11:57:11;102702.81;;;23.31;33.33
10712;BME280;5407;51.234;6.804;2023-01-25T11:59:58;102691.78;;;23.27;33.32
10712;BME280;5407;51.234;6.804;2023-01-25T12:05:38;102685.47;;;23.27;33.34
10712;BME280;5407;51.234;6.804;2023-01-25T12:08:20;102679.19;;;23.26;33.26
10712;BME280;5407;51.234;6.804;2023-01-25T12:10:54;102673.69;;;23.26;33.29
10712;BME280;5407;51.234;6.804;2023-01-25T12:13:30;102663.44;;;23.27;33.40
10712;BME280;5407;51.234;6.804;2023-01-25T12:16:17;102652.06;;;23.28;33.32
10712;BME280;5407;51.234;6.804;2023-01-25T12:19:03;102651.25;;;23.28;33.43
10712;BME280;5407;51.234;6.804;2023-01-25T12:21:49;102637.06;;;23.26;33.45
10712;BME280;5407;51.234;6.804;2023-01-25T12:24:30;102624.09;;;23.26;33.46
10712;BME280;5407;51.234;6.804;2023-01-25T12:27:09;102616.63;;;23.27;33.36
10712;BME280;5407;51.234;6.804;2023-01-25T12:29:42;102622.53;;;23.29;33.43
10712;BME280;5407;51.234;6.804;2023-01-25T12:32:13;102611.50;;;23.29;33.37
10712;BME280;5407;51.234;6.804;2023-01-25T12:34:47;102600.50;;;23.29;33.32
10712;BME280;5407;51.234;6.804;2023-01-25T12:37:18;102595.78;;;23.29;33.33
10712;BME280;5407;51.234;6.804;2023-01-25T12:39:50;102599.72;;;23.28;33.49
10712;BME280;5407;51.234;6.804;2023-01-25T12:42:24;102587.91;;;23.28;33.37
10712;BME280;5407;51.234;6.804;2023-01-25T12:44:56;102588.69;;;23.28;33.35
10712;BME280;5407;51.234;6.804;2023-01-25T12:47:30;102583.97;;;23.29;33.34
10712;BME280;5407;51.234;6.804;2023-01-25T12:50:05;102578.47;;;23.29;33.38
10712;BME280;5407;51.234;6.804;2023-01-25T12:52:44;102567.44;;;23.29;33.28
10712;BME280;5407;51.234;6.804;2023-01-25T12:55:13;102556.44;;;23.29;33.16
10712;BME280;5407;51.234;6.804;2023-01-25T12:57:48;102553.66;;;23.29;33.24
10712;BME280;5407;51.234;6.804;2023-01-25T13:00:20;102539.13;;;23.28;33.35
10712;BME280;5407;51.234;6.804;2023-01-25T13:03:00;102528.88;;;23.29;33.05
10712;BME280;5407;51.234;6.804;2023-01-25T13:05:34;102530.88;;;23.28;33.19
10712;BME280;5407;51.234;6.804;2023-01-25T13:08:13;102521.78;;;23.28;33.22
10712;BME280;5407;51.234;6.804;2023-01-25T13:10:46;102515.50;;;23.27;33.19
10712;BME280;5407;51.234;6.804;2023-01-25T13:13:21;102516.28;;;23.28;33.17
10712;BME280;5407;51.234;6.804;2023-01-25T13:15:48;102515.50;;;23.27;33.15
10712;BME280;5407;51.234;6.804;2023-01-25T13:18:39;102509.19;;;23.27;33.12
10712;BME280;5407;51.234;6.804;2023-01-25T13:21:37;102498.59;;;23.25;33.11
10712;BME280;5407;51.234;6.804;2023-01-25T13:24:29;102500.16;;;23.26;33.08
10712;BME280;5407;51.234;6.804;2023-01-25T13:27:01;102495.03;;;23.25;33.24
10712;BME280;5407;51.234;6.804;2023-01-25T13:29:46;102500.53;;;23.25;33.11
10712;BME280;5407;51.234;6.804;2023-01-25T13:35:45;102497.25;;;23.09;32.81